Time;durP1;ratioP1;P1;durP2;ratioP2;P2;SDS_P1;SDS_P2;PMS_P1;PMS_P2;Temp;Humidity;BMP_temperature;BMP_pressure;BME280_temperature;BME280_humidity;BME280_pressure;Samples;Min_cycle;Max_cycle;Signal;HPM_P1;HPM_P2
2023/01/28 00:00:15;;;;;;;9.37;5.30;;;3.30;99.90;;;;;;5002922;28;20486;-81
2023/01/28 00:02:43;;;;;;;13.27;5.60;;;3.20;99.90;;;;;;4999844;28;20458;-82
2023/01/28 00:05:11;;;;;;;8.80;5.63;;;3.30;99.90;;;;;;4999676;28;20458;-82
2023/01/28 00:07:37;;;;;;;8.90;5.73;;;3.20;99.90;;;;;;5003100;28;20501;-82
2023/01/28 00:10:05;;;;;;;9.70;5.97;;;3.20;99.90;;;;;;5003230;28;20450;-82
2023/01/28 00:12:32;;;;;;;7.90;5.13;;;3.20;99.90;;;;;;5001951;28;20461;-82
2023/01/28 00:14:58;;;;;;;8.40;5.60;;;3.20;99.90;;;;;;4983243;28;20466;-82
2023/01/28 00:17:25;;;;;;;10.37;5.60;;;3.20;99.90;;;;;;4983246;28;20479;-81
2023/01/28 00:19:53;;;;;;;10.00;5.97;;;3.20;99.90;;;;;;5002984;28;20485;-82
2023/01/28 00:22:20;;;;;;;9.27;5.20;;;3.10;99.90;;;;;;5002361;28;20839;-81
2023/01/28 00:24:47;;;;;;;10.40;5.13;;;3.20;99.90;;;;;;4984813;28;20458;-81
2023/01/28 00:27:13;;;;;;;7.70;4.80;;;3.10;99.90;;;;;;4983101;28;20482;-82
2023/01/28 00:29:40;;;;;;;5.50;2.50;;;3.10;99.90;;;;;;4983652;28;20447;-82
2023/01/28 00:32:07;;;;;;;7.40;4.07;;;3.00;99.90;;;;;;4983407;28;20465;-82
2023/01/28 00:34:34;;;;;;;13.40;5.47;;;3.10;99.90;;;;;;4982720;28;20942;-82
2023/01/28 00:37:02;;;;;;;11.03;5.73;;;3.00;99.90;;;;;;4982658;28;20462;-82
2023/01/28 00:39:29;;;;;;;17.80;7.17;;;2.90;99.90;;;;;;4997770;28;20470;-82
2023/01/28 00:41:55;;;;;;;19.23;10.03;;;2.80;99.90;;;;;;5002648;28;20453;-80
2023/01/28 00:44:22;;;;;;;21.23;10.13;;;2.70;99.90;;;;;;4988451;28;20454;-82
2023/01/28 00:46:49;;;;;;;16.20;7.43;;;2.50;99.90;;;;;;4982883;28;20459;-81
2023/01/28 00:49:16;;;;;;;9.97;5.00;;;2.30;99.90;;;;;;4995398;28;20454;-81
2023/01/28 00:51:42;;;;;;;8.00;4.45;;;2.10;99.90;;;;;;5002486;28;20458;-83
2023/01/28 00:54:11;;;;;;;8.33;5.50;;;2.00;99.90;;;;;;4990018;28;20200;-82
2023/01/28 00:56:38;;;;;;;9.70;5.07;;;1.90;99.90;;;;;;4989661;28;20472;-82
2023/01/28 00:59:05;;;;;;;10.47;6.50;;;1.90;99.90;;;;;;5001729;28;20497;-82
2023/01/28 01:01:32;;;;;;;13.27;5.23;;;1.90;99.90;;;;;;5001424;28;20482;-81
2023/01/28 01:04:02;;;;;;;7.23;4.40;;;2.00;99.90;;;;;;5002361;28;20473;-82
2023/01/28 01:06:30;;;;;;;10.37;6.67;;;2.00;99.90;;;;;;5001781;28;20462;-82
2023/01/28 01:08:57;;;;;;;9.32;5.57;;;2.10;99.90;;;;;;5002071;28;20470;-82
2023/01/28 01:11:25;;;;;;;12.27;6.83;;;2.20;99.90;;;;;;5001075;28;20190;-82
2023/01/28 01:13:53;;;;;;;4.30;2.20;;;2.30;99.90;;;;;;5002399;28;20461;-82
2023/01/28 01:16:21;;;;;;;8.87;5.33;;;2.30;99.90;;;;;;5000726;28;20462;-82
2023/01/28 01:18:48;;;;;;;8.63;5.13;;;2.40;99.90;;;;;;5001474;28;20478;-82
2023/01/28 01:21:17;;;;;;;4.87;3.33;;;2.50;99.90;;;;;;5001810;28;20477;-81
2023/01/28 01:23:44;;;;;;;9.10;5.17;;;2.50;99.90;;;;;;5001577;28;20482;-82
2023/01/28 01:26:11;;;;;;;10.93;6.13;;;2.60;99.90;;;;;;4984076;28;20461;-82
2023/01/28 01:28:39;;;;;;;9.70;6.23;;;2.60;99.90;;;;;;4981460;28;20486;-82
2023/01/28 01:31:08;;;;;;;9.33;5.80;;;2.70;99.90;;;;;;4997506;28;20446;-82
2023/01/28 01:33:35;;;;;;;12.00;7.00;;;2.60;99.90;;;;;;5001157;28;20450;-82
2023/01/28 01:36:02;;;;;;;10.37;7.30;;;2.60;99.90;;;;;;5001318;28;20454;-83
2023/01/28 01:38:29;;;;;;;20.50;11.50;;;2.70;99.90;;;;;;5000764;28;20497;-82
2023/01/28 01:41:00;;;;;;;10.73;5.03;;;2.60;99.90;;;;;;5000918;28;20917;-81
2023/01/28 01:43:48;;;;;;;14.73;6.07;;;2.70;99.90;;;;;;4991123;28;20451;-83
2023/01/28 01:46:18;;;;;;;16.77;8.40;;;2.60;99.90;;;;;;4982504;28;20447;-82
2023/01/28 01:48:46;;;;;;;14.87;10.60;;;2.60;99.90;;;;;;4981754;28;20497;-82
2023/01/28 01:51:16;;;;;;;13.93;8.53;;;2.50;99.90;;;;;;4981809;28;20882;-81
2023/01/28 01:53:47;;;;;;;17.40;10.40;;;2.50;99.90;;;;;;4981995;28;20447;-82
2023/01/28 01:56:18;;;;;;;15.10;8.70;;;2.40;99.90;;;;;;4982557;28;20450;-82
2023/01/28 01:58:50;;;;;;;9.13;4.83;;;2.40;99.90;;;;;;4981775;28;20489;-82
2023/01/28 02:01:19;;;;;;;14.87;9.10;;;2.40;99.90;;;;;;4982126;28;20474;-81
2023/01/28 02:03:55;;;;;;;13.87;8.23;;;2.30;99.90;;;;;;4981857;28;20451;-81
2023/01/28 02:06:23;;;;;;;14.23;7.17;;;2.30;99.90;;;;;;4982248;28;20465;-82
2023/01/28 02:08:49;;;;;;;16.50;8.87;;;2.20;99.90;;;;;;4981159;28;20475;-82
2023/01/28 02:11:18;;;;;;;9.90;6.40;;;2.20;99.90;;;;;;4982037;28;20447;-81
2023/01/28 02:13:48;;;;;;;12.10;6.07;;;2.20;99.90;;;;;;4981493;28;20455;-82
2023/01/28 02:16:16;;;;;;;8.93;5.87;;;2.20;99.90;;;;;;4982188;28;20444;-82
2023/01/28 02:18:43;;;;;;;13.17;8.30;;;2.20;99.90;;;;;;4981415;28;20985;-81
2023/01/28 02:21:43;;;;;;;13.37;8.80;;;2.20;99.90;;;;;;4981509;28;20490;-82
2023/01/28 02:24:43;;;;;;;11.70;6.43;;;2.30;99.90;;;;;;4986406;28;20448;-82
2023/01/28 02:27:27;;;;;;;13.63;5.57;;;2.30;99.90;;;;;;5000545;28;20476;-82
2023/01/28 02:30:01;;;;;;;12.30;7.70;;;2.30;99.90;;;;;;5001177;28;20198;-82
2023/01/28 02:32:34;;;;;;;12.07;7.73;;;2.40;99.90;;;;;;5000886;28;20453;-82
2023/01/28 02:35:09;;;;;;;12.43;5.97;;;2.40;99.90;;;;;;5000885;28;20443;-82
2023/01/28 02:37:40;;;;;;;7.60;5.27;;;2.40;99.90;;;;;;4981658;28;20470;-82
2023/01/28 02:40:12;;;;;;;14.73;7.13;;;2.40;99.90;;;;;;4981911;28;20474;-82
2023/01/28 02:42:41;;;;;;;9.23;5.73;;;2.40;99.90;;;;;;4981547;28;20458;-82
2023/01/28 02:45:20;;;;;;;15.67;6.73;;;2.40;99.90;;;;;;4981354;28;20458;-82
2023/01/28 02:47:58;;;;;;;6.47;4.90;;;2.40;99.90;;;;;;4980771;28;20485;-82
2023/01/28 02:50:35;;;;;;;12.40;8.40;;;2.40;99.90;;;;;;4981490;28;20530;-82
2023/01/28 02:56:07;;;;;;;9.43;4.87;;;2.40;99.90;;;;;;4981462;28;20431;-81
2023/01/28 02:58:39;;;;;;;17.20;8.03;;;2.50;99.90;;;;;;4981239;28;20494;-82
2023/01/28 03:01:16;;;;;;;7.60;4.67;;;2.40;99.90;;;;;;4981203;28;20467;-83
2023/01/28 03:03:52;;;;;;;11.97;8.70;;;2.50;99.90;;;;;;4980916;28;20447;-82
2023/01/28 03:06:22;;;;;;;14.37;8.73;;;2.40;99.90;;;;;;4981054;28;20439;-82
2023/01/28 03:36:49;;;;;;;9.60;4.17;;;2.40;99.90;;;;;;5004103;28;20429;-82
2023/01/28 03:39:16;;;;;;;11.57;7.17;;;2.40;99.90;;;;;;5004208;28;20944;-82
2023/01/28 03:41:54;;;;;;;13.80;9.50;;;2.30;99.90;;;;;;5003888;28;20485;-82
2023/01/28 03:47:07;;;;;;;8.48;4.65;;;2.40;99.90;;;;;;5001915;28;20418;-81
2023/01/28 03:49:35;;;;;;;10.30;4.63;;;2.30;99.90;;;;;;4994425;28;20965;-82
2023/01/28 03:52:02;;;;;;;17.13;10.90;;;2.30;99.90;;;;;;5000429;28;20454;-82
2023/01/28 03:54:29;;;;;;;10.73;5.13;;;2.40;99.90;;;;;;5003615;28;20466;-82
2023/01/28 03:56:55;;;;;;;10.43;6.00;;;2.30;99.90;;;;;;5002059;28;20457;-82
2023/01/28 03:59:24;;;;;;;22.67;13.17;;;2.30;99.90;;;;;;5002289;28;20462;-82
2023/01/28 04:01:51;;;;;;;20.33;12.00;;;2.30;99.90;;;;;;5002566;28;20477;-82
2023/01/28 04:04:22;;;;;;;13.13;7.63;;;2.30;99.90;;;;;;5002261;28;20453;-83
2023/01/28 04:06:51;;;;;;;15.70;6.47;;;2.30;99.90;;;;;;4983025;28;20466;-82
2023/01/28 04:09:17;;;;;;;13.67;8.17;;;2.20;99.90;;;;;;4983353;28;20454;-81
2023/01/28 04:11:44;;;;;;;20.50;6.57;;;2.20;99.90;;;;;;4983312;28;20467;-82
2023/01/28 04:14:11;;;;;;;20.87;6.03;;;2.20;99.90;;;;;;4983328;28;20462;-82
2023/01/28 04:16:38;;;;;;;20.07;8.07;;;2.20;99.90;;;;;;4984879;28;20459;-82
2023/01/28 04:19:05;;;;;;;26.27;14.47;;;2.20;99.90;;;;;;5002936;28;20481;-82
2023/01/28 04:21:31;;;;;;;22.30;14.90;;;2.20;99.90;;;;;;5003019;28;20505;-82
2023/01/28 04:24:00;;;;;;;20.47;10.40;;;2.20;99.90;;;;;;5002850;28;20830;-83
2023/01/28 04:26:27;;;;;;;15.80;10.53;;;2.20;99.90;;;;;;5002600;28;20454;-83
2023/01/28 04:28:54;;;;;;;21.57;11.17;;;2.20;99.90;;;;;;5002538;28;20470;-82
2023/01/28 04:31:22;;;;;;;22.53;13.83;;;2.10;99.90;;;;;;5002020;28;20826;-82
2023/01/28 04:33:49;;;;;;;13.47;6.87;;;2.10;99.90;;;;;;5001330;28;20494;-81
2023/01/28 04:36:16;;;;;;;22.00;10.10;;;2.10;99.90;;;;;;5002506;28;20949;-82
2023/01/28 04:38:43;;;;;;;17.00;9.20;;;2.10;99.90;;;;;;5002458;28;20481;-82
2023/01/28 04:41:11;;;;;;;16.10;8.27;;;2.10;99.90;;;;;;5002015;28;20481;-83
2023/01/28 04:43:38;;;;;;;19.90;9.13;;;2.10;99.90;;;;;;5001948;28;20455;-82
2023/01/28 04:46:04;;;;;;;21.77;12.60;;;2.00;99.90;;;;;;5002439;28;20833;-82
2023/01/28 04:48:31;;;;;;;10.20;3.17;;;2.00;99.90;;;;;;5002000;28;20478;-82
2023/01/28 04:50:58;;;;;;;19.07;10.97;;;2.00;99.90;;;;;;5000207;28;20455;-82
2023/01/28 04:53:25;;;;;;;18.10;9.47;;;2.00;99.90;;;;;;5002336;28;20469;-83
2023/01/28 04:55:51;;;;;;;19.53;10.83;;;2.00;99.90;;;;;;4986146;28;20450;-82
2023/01/28 04:58:19;;;;;;;20.40;11.37;;;2.10;99.90;;;;;;4983619;28;20489;-82
2023/01/28 05:00:46;;;;;;;27.10;13.27;;;2.00;99.90;;;;;;4982575;28;20487;-82
2023/01/28 05:03:13;;;;;;;24.23;10.97;;;2.00;99.90;;;;;;4997766;28;20845;-82
2023/01/28 05:05:40;;;;;;;21.97;11.43;;;2.00;99.90;;;;;;4982546;28;20451;-82
2023/01/28 05:08:06;;;;;;;17.00;9.47;;;1.90;99.90;;;;;;4988557;28;20486;-82
2023/01/28 05:10:33;;;;;;;22.70;10.40;;;2.00;99.90;;;;;;4998435;28;20458;-82
2023/01/28 05:13:00;;;;;;;13.90;8.10;;;1.90;99.90;;;;;;4983800;28;20463;-84
2023/01/28 05:15:28;;;;;;;8.93;5.83;;;2.00;99.90;;;;;;4988363;28;20472;-81
2023/01/28 05:17:56;;;;;;;17.13;8.83;;;1.90;99.90;;;;;;5000989;28;20537;-82
2023/01/28 05:20:22;;;;;;;13.80;8.70;;;1.90;99.90;;;;;;4994252;28;20451;-83
2023/01/28 05:22:49;;;;;;;25.83;12.53;;;1.90;99.90;;;;;;4982126;28;20513;-82
2023/01/28 05:25:16;;;;;;;28.37;9.43;;;1.90;99.90;;;;;;5001320;28;20458;-82
2023/01/28 05:27:43;;;;;;;18.23;8.90;;;1.90;99.90;;;;;;5001220;28;20478;-81
2023/01/28 05:30:11;;;;;;;12.13;7.07;;;1.90;99.90;;;;;;5001160;28;20477;-82
2023/01/28 05:32:39;;;;;;;12.40;6.60;;;1.90;99.90;;;;;;5001381;28;20461;-83
2023/01/28 05:35:06;;;;;;;20.70;8.03;;;1.90;99.90;;;;;;5000715;28;20516;-82
2023/01/28 05:37:33;;;;;;;21.92;12.70;;;1.90;99.90;;;;;;4991804;28;20470;-82
2023/01/28 05:40:00;;;;;;;19.90;11.07;;;1.90;99.90;;;;;;4997424;28;20199;-82
2023/01/28 05:42:26;;;;;;;18.40;12.10;;;1.90;99.90;;;;;;4997582;28;20473;-83
2023/01/28 05:44:53;;;;;;;14.57;8.37;;;1.90;99.90;;;;;;5000126;28;20450;-82
2023/01/28 05:47:20;;;;;;;21.60;13.50;;;1.90;99.90;;;;;;5000804;28;20476;-82
2023/01/28 05:49:48;;;;;;;25.77;12.57;;;1.90;99.90;;;;;;5000015;28;20465;-82
2023/01/28 05:52:15;;;;;;;19.33;11.30;;;1.80;99.90;;;;;;5001006;28;20442;-83
2023/01/28 05:54:41;;;;;;;19.50;9.00;;;1.80;99.90;;;;;;5000175;28;20458;-82
2023/01/28 05:57:08;;;;;;;24.63;10.23;;;1.80;99.90;;;;;;5000483;28;20454;-82
2023/01/28 05:59:35;;;;;;;25.43;12.63;;;1.80;99.90;;;;;;4996048;28;20449;-82
2023/01/28 06:02:01;;;;;;;15.50;9.17;;;1.80;99.90;;;;;;5001470;28;20486;-82
2023/01/28 06:04:28;;;;;;;20.13;9.87;;;1.80;99.90;;;;;;4987822;28;20459;-83
2023/01/28 06:06:56;;;;;;;25.10;10.63;;;1.80;99.90;;;;;;4990547;28;20450;-82
2023/01/28 06:09:23;;;;;;;13.70;7.80;;;1.80;99.90;;;;;;5001209;28;20453;-82
2023/01/28 06:11:50;;;;;;;12.73;7.50;;;1.80;99.90;;;;;;4996607;28;20451;-82
2023/01/28 06:14:17;;;;;;;12.50;6.97;;;1.90;99.90;;;;;;4989582;28;20450;-82
2023/01/28 06:16:43;;;;;;;23.03;12.20;;;1.80;99.90;;;;;;4994395;28;20546;-82
2023/01/28 06:19:10;;;;;;;11.97;7.30;;;1.80;99.90;;;;;;4981551;28;20479;-83
2023/01/28 06:21:37;;;;;;;15.17;8.03;;;1.80;99.90;;;;;;4983086;28;20483;-81
2023/01/28 06:24:05;;;;;;;9.25;5.05;;;1.80;99.90;;;;;;4980735;28;20454;-82
2023/01/28 06:26:32;;;;;;;20.87;8.00;;;1.80;99.90;;;;;;4981515;28;20309;-83
2023/01/28 06:28:59;;;;;;;19.47;8.70;;;1.70;99.90;;;;;;4981907;28;20475;-82
2023/01/28 06:31:25;;;;;;;18.17;10.30;;;1.70;99.90;;;;;;4982369;28;20458;-82
2023/01/28 06:33:52;;;;;;;16.30;9.23;;;1.80;99.90;;;;;;4981838;28;20202;-82
2023/01/28 06:36:19;;;;;;;17.47;8.73;;;1.80;99.90;;;;;;4995092;28;20455;-84
2023/01/28 06:38:46;;;;;;;19.23;9.43;;;1.80;99.90;;;;;;4982751;28;20471;-82
2023/01/28 06:41:14;;;;;;;19.90;11.50;;;1.70;99.90;;;;;;4994643;28;20480;-81
2023/01/28 06:43:40;;;;;;;21.10;11.57;;;1.70;99.90;;;;;;4997597;28;20199;-82
2023/01/28 06:46:07;;;;;;;16.53;8.80;;;1.70;99.90;;;;;;5000223;28;20451;-83
2023/01/28 06:48:34;;;;;;;16.90;10.10;;;1.70;99.90;;;;;;5000270;28;20474;-82
2023/01/28 06:51:01;;;;;;;23.00;11.17;;;1.70;99.90;;;;;;4993889;28;20454;-82
2023/01/28 06:53:27;;;;;;;24.60;12.53;;;1.70;99.90;;;;;;4987794;28;20995;-82
2023/01/28 06:55:54;;;;;;;9.23;6.53;;;1.70;99.90;;;;;;4982989;28;20455;-83
2023/01/28 06:58:22;;;;;;;9.40;4.93;;;1.70;99.90;;;;;;4984236;28;20486;-82
2023/01/28 07:00:49;;;;;;;14.40;9.33;;;1.60;99.90;;;;;;5004026;28;20460;-83
2023/01/28 07:03:16;;;;;;;16.17;9.43;;;1.60;99.90;;;;;;5001612;28;20834;-82
2023/01/28 07:05:42;;;;;;;15.00;8.50;;;1.70;99.90;;;;;;4997573;28;20457;-83
2023/01/28 07:08:09;;;;;;;15.10;9.07;;;1.70;99.90;;;;;;5002627;28;20474;-82
2023/01/28 07:10:36;;;;;;;16.87;9.53;;;1.70;99.90;;;;;;5003419;28;20458;-82
2023/01/28 07:13:03;;;;;;;9.30;5.80;;;1.70;99.90;;;;;;5002652;28;20456;-81
2023/01/28 07:15:31;;;;;;;15.27;7.90;;;1.60;99.90;;;;;;4985108;28;20970;-83
2023/01/28 07:17:58;;;;;;;18.42;11.93;;;1.70;99.90;;;;;;4985435;28;20485;-81
2023/01/28 07:20:24;;;;;;;8.95;5.50;;;1.60;99.90;;;;;;5004323;28;20278;-82
2023/01/28 07:22:51;;;;;;;14.37;9.07;;;1.60;99.90;;;;;;4995031;28;20214;-82
2023/01/28 07:25:18;;;;;;;22.20;14.17;;;1.60;99.90;;;;;;4996598;28;20454;-82
2023/01/28 07:27:50;;;;;;;10.70;3.67;;;1.60;99.90;;;;;;4991003;28;21032;-82
2023/01/28 07:30:17;;;;;;;19.60;12.43;;;1.60;99.90;;;;;;5005027;28;20477;-82
2023/01/28 07:32:46;;;;;;;13.47;7.70;;;1.50;99.90;;;;;;5001323;28;20465;-82
2023/01/28 07:35:14;;;;;;;13.90;8.50;;;1.60;99.90;;;;;;5002071;28;20827;-83
2023/01/28 07:37:41;;;;;;;20.30;9.57;;;1.50;99.90;;;;;;5001755;28;20566;-83
2023/01/28 07:40:10;;;;;;;15.37;8.10;;;1.50;99.90;;;;;;5003673;28;20458;-82
2023/01/28 07:42:36;;;;;;;8.17;5.23;;;1.50;99.90;;;;;;5003053;28;20482;-82
2023/01/28 07:45:05;;;;;;;15.03;9.10;;;1.50;99.90;;;;;;4996492;28;20450;-83
2023/01/28 07:47:32;;;;;;;13.70;6.63;;;1.50;99.90;;;;;;4998146;28;20822;-82
2023/01/28 07:50:00;;;;;;;16.97;9.87;;;1.50;99.90;;;;;;5002802;28;20450;-82
2023/01/28 07:52:27;;;;;;;15.67;9.60;;;1.50;99.90;;;;;;5003251;28;20456;-82
2023/01/28 07:54:54;;;;;;;19.00;11.60;;;1.50;99.90;;;;;;5002411;28;20450;-82
2023/01/28 07:57:22;;;;;;;16.05;7.82;;;1.50;99.90;;;;;;5002579;28;20486;-82
2023/01/28 07:59:50;;;;;;;17.10;10.10;;;1.60;99.90;;;;;;5001451;28;20230;-82
2023/01/28 08:02:17;;;;;;;9.33;6.37;;;1.50;99.90;;;;;;4993186;28;20481;-84
2023/01/28 08:04:44;;;;;;;22.38;11.10;;;1.50;99.90;;;;;;5003623;28;20822;-83
2023/01/28 08:07:12;;;;;;;27.90;13.73;;;1.60;99.90;;;;;;5000943;28;20223;-83
2023/01/28 08:09:39;;;;;;;25.63;14.30;;;1.50;99.90;;;;;;5001175;28;20450;-82
2023/01/28 08:12:06;;;;;;;29.40;16.40;;;1.60;99.90;;;;;;4986436;28;20839;-81
2023/01/28 08:14:32;;;;;;;26.80;13.27;;;1.60;99.90;;;;;;4983147;28;20470;-82
2023/01/28 08:16:59;;;;;;;18.50;10.50;;;1.70;99.90;;;;;;4984890;28;20458;-82
2023/01/28 08:19:26;;;;;;;17.40;9.83;;;1.70;99.90;;;;;;4983159;28;20459;-82
2023/01/28 08:21:53;;;;;;;19.77;9.50;;;1.60;99.90;;;;;;4989420;28;21116;-81
2023/01/28 08:24:21;;;;;;;11.27;5.53;;;1.60;99.90;;;;;;5002739;28;20203;-82
2023/01/28 08:26:48;;;;;;;15.57;9.43;;;1.70;99.90;;;;;;4986632;28;20462;-84
2023/01/28 08:29:15;;;;;;;20.67;10.17;;;1.70;99.90;;;;;;4982290;28;20470;-80
2023/01/28 08:31:42;;;;;;;21.87;12.40;;;1.70;99.90;;;;;;4991401;28;20459;-83
2023/01/28 08:34:09;;;;;;;24.53;13.27;;;1.70;99.90;;;;;;4983998;28;21020;-81
2023/01/28 08:36:36;;;;;;;22.67;12.57;;;1.80;99.90;;;;;;4984135;28;20447;-84
2023/01/28 08:39:02;;;;;;;16.67;11.40;;;1.80;99.90;;;;;;4982677;28;20471;-84
2023/01/28 08:41:31;;;;;;;21.10;10.73;;;1.90;99.90;;;;;;4993611;28;20464;-84
2023/01/28 08:43:59;;;;;;;19.30;10.70;;;2.00;99.90;;;;;;5001675;28;20485;-83
2023/01/28 08:46:25;;;;;;;15.90;9.47;;;2.00;99.40;;;;;;4989438;28;20499;-82
2023/01/28 08:48:52;;;;;;;16.33;10.63;;;2.00;98.60;;;;;;4982476;28;20858;-84
2023/01/28 08:51:19;;;;;;;16.80;12.00;;;2.00;98.90;;;;;;4981779;28;20462;-85
2023/01/28 08:53:46;;;;;;;17.23;11.50;;;2.10;99.90;;;;;;4982492;28;20465;-83
2023/01/28 08:56:13;;;;;;;16.53;10.33;;;2.10;99.50;;;;;;5001525;28;20458;-85
2023/01/28 08:58:41;;;;;;;16.77;11.23;;;2.10;98.90;;;;;;5000491;28;20482;-84
2023/01/28 09:01:07;;;;;;;16.00;11.37;;;2.20;98.10;;;;;;4982612;28;20454;-84
2023/01/28 09:03:34;;;;;;;21.07;12.70;;;2.20;98.30;;;;;;4982266;28;20486;-84
2023/01/28 09:06:02;;;;;;;21.93;11.33;;;2.20;98.40;;;;;;5002250;28;20454;-85
2023/01/28 09:08:29;;;;;;;17.50;11.80;;;2.40;98.20;;;;;;5001643;28;20477;-84
2023/01/28 09:10:56;;;;;;;19.93;11.40;;;2.50;98.30;;;;;;5000062;28;20461;-84
2023/01/28 09:13:23;;;;;;;24.17;13.23;;;2.50;98.00;;;;;;4999691;28;20457;-84
2023/01/28 09:15:51;;;;;;;20.10;12.27;;;2.50;98.40;;;;;;4984024;28;20192;-85
2023/01/28 09:18:19;;;;;;;12.83;6.40;;;2.50;98.50;;;;;;4981921;28;20483;-84
2023/01/28 09:20:45;;;;;;;13.77;6.87;;;2.50;97.60;;;;;;4996089;28;20453;-82
2023/01/28 09:23:13;;;;;;;14.43;7.60;;;2.40;97.00;;;;;;5000838;28;20489;-85
2023/01/28 09:25:41;;;;;;;18.90;11.93;;;2.30;96.70;;;;;;4986977;28;20529;-84
2023/01/28 09:28:08;;;;;;;10.73;6.30;;;2.40;97.50;;;;;;4981598;28;20478;-82
2023/01/28 09:30:35;;;;;;;14.63;6.70;;;2.40;97.20;;;;;;4993555;28;20454;-86
2023/01/28 09:33:03;;;;;;;20.93;13.90;;;2.30;96.90;;;;;;5000210;28;20451;-85
2023/01/28 09:35:29;;;;;;;17.60;9.37;;;2.20;97.80;;;;;;4988080;28;20458;-84
2023/01/28 09:37:57;;;;;;;15.70;10.37;;;2.10;96.80;;;;;;4980755;28;20635;-84
2023/01/28 09:40:31;;;;;;;22.83;12.40;;;2.10;97.50;;;;;;4989553;28;20461;-84
2023/01/28 09:43:09;;;;;;;17.07;10.90;;;2.10;97.60;;;;;;5000232;28;20601;-83
2023/01/28 09:45:40;;;;;;;23.33;13.95;;;2.20;98.30;;;;;;4988982;28;20465;-82
2023/01/28 09:48:13;;;;;;;21.50;13.65;;;2.30;98.80;;;;;;4979101;28;20465;-86
2023/01/28 09:50:43;;;;;;;18.03;12.13;;;2.50;98.60;;;;;;4997435;28;20194;-78
2023/01/28 09:53:16;;;;;;;11.67;8.30;;;2.60;97.40;;;;;;4995335;28;20447;-82
2023/01/28 09:55:46;;;;;;;20.10;11.10;;;2.40;96.50;;;;;;4982079;28;20459;-80
2023/01/28 09:58:16;;;;;;;18.07;9.93;;;2.40;96.70;;;;;;4985075;28;20485;-83
2023/01/28 10:00:52;;;;;;;11.73;6.57;;;2.40;97.60;;;;;;5004708;28;20450;-83
2023/01/28 10:03:33;;;;;;;14.63;8.77;;;2.40;98.00;;;;;;4998032;28;20479;-83
2023/01/28 10:06:13;;;;;;;11.53;6.73;;;2.30;96.50;;;;;;4985373;28;20446;-84
2023/01/28 10:09:10;;;;;;;11.60;7.13;;;2.30;96.80;;;;;;4994102;28;20865;-82
2023/01/28 10:11:49;;;;;;;14.03;8.60;;;2.20;95.40;;;;;;5006565;28;20449;-82
2023/01/28 10:14:29;;;;;;;15.30;8.68;;;2.30;95.10;;;;;;4995046;28;20443;-84
2023/01/28 10:17:05;;;;;;;22.97;10.10;;;2.30;95.10;;;;;;4987226;28;20617;-82
2023/01/28 10:19:37;;;;;;;32.53;16.70;;;2.30;95.10;;;;;;4999368;28;20839;-82
2023/01/28 10:22:07;;;;;;;13.67;8.00;;;2.50;96.00;;;;;;5006465;28;20465;-82
2023/01/28 10:24:36;;;;;;;25.80;14.57;;;2.60;95.20;;;;;;5006217;28;20446;-84
2023/01/28 10:27:09;;;;;;;30.53;16.00;;;2.60;95.20;;;;;;5002660;28;20451;-82
2023/01/28 10:29:38;;;;;;;23.53;12.80;;;2.60;95.20;;;;;;4986960;28;20469;-82
2023/01/28 10:32:15;;;;;;;25.97;15.40;;;2.70;94.80;;;;;;4991053;28;20450;-82
2023/01/28 10:34:44;;;;;;;23.30;14.93;;;2.70;94.70;;;;;;5007306;28;20464;-82
2023/01/28 10:37:14;;;;;;;27.17;17.30;;;2.80;94.90;;;;;;5001189;28;20542;-82
2023/01/28 10:39:42;;;;;;;36.47;17.20;;;2.70;95.30;;;;;;4985812;28;20450;-80
2023/01/28 10:42:22;;;;;;;26.00;14.90;;;2.70;95.00;;;;;;4990277;28;20496;-83
2023/01/28 10:44:50;;;;;;;26.20;17.93;;;2.70;95.30;;;;;;5003024;28;20477;-82
2023/01/28 10:47:27;;;;;;;29.03;15.70;;;2.70;94.20;;;;;;4999481;28;20471;-82
2023/01/28 10:49:59;;;;;;;18.10;8.40;;;2.60;94.30;;;;;;4986067;28;20886;-80
2023/01/28 10:52:26;;;;;;;17.30;10.87;;;2.70;93.10;;;;;;4986438;28;20450;-82
2023/01/28 10:55:00;;;;;;;20.40;10.40;;;2.60;93.30;;;;;;4985983;28;20447;-83
2023/01/28 10:57:28;;;;;;;21.07;11.63;;;2.70;94.40;;;;;;4992382;28;20477;-83
2023/01/28 10:59:55;;;;;;;16.27;9.87;;;2.70;93.90;;;;;;5005324;28;20450;-83
2023/01/28 11:02:28;;;;;;;34.20;14.60;;;2.70;92.80;;;;;;5005962;28;20478;-82
2023/01/28 11:05:06;;;;;;;30.70;17.93;;;3.00;93.50;;;;;;5004510;28;20446;-85
2023/01/28 11:07:33;;;;;;;42.73;25.37;;;3.00;93.30;;;;;;4987861;28;20542;-82
2023/01/28 11:10:01;;;;;;;23.00;15.07;;;3.30;93.30;;;;;;4985168;28;20465;-82
2023/01/28 11:12:29;;;;;;;23.83;14.80;;;3.40;92.30;;;;;;4981616;28;20502;-82
2023/01/28 11:14:58;;;;;;;15.60;10.00;;;3.40;93.30;;;;;;4981059;28;20459;-82
2023/01/28 11:17:28;;;;;;;20.37;8.97;;;3.40;91.90;;;;;;4999087;28;20478;-82
2023/01/28 11:19:56;;;;;;;25.47;14.73;;;3.30;91.70;;;;;;4982305;28;20482;-83
2023/01/28 11:22:31;;;;;;;28.00;16.50;;;3.20;92.80;;;;;;4979262;28;20459;-83
2023/01/28 11:24:58;;;;;;;13.47;7.70;;;3.10;91.70;;;;;;4981614;28;20451;-82
2023/01/28 11:27:28;;;;;;;25.00;15.33;;;3.10;91.30;;;;;;4980163;28;20477;-84
2023/01/28 11:29:57;;;;;;;14.20;9.90;;;3.10;92.60;;;;;;4980171;28;20455;-83
2023/01/28 11:32:26;;;;;;;21.77;12.33;;;3.00;92.30;;;;;;4986825;28;20603;-83
2023/01/28 11:34:56;;;;;;;21.90;13.37;;;2.90;92.20;;;;;;5001166;28;20453;-82
2023/01/28 11:37:26;;;;;;;17.87;9.43;;;2.90;93.40;;;;;;4994227;28;20537;-83
2023/01/28 11:40:19;;;;;;;19.00;11.40;;;2.80;92.60;;;;;;4980370;28;20459;-82
2023/01/28 11:42:47;;;;;;;16.20;10.67;;;2.60;92.50;;;;;;4988840;28;20473;-82
2023/01/28 11:45:17;;;;;;;26.43;14.40;;;2.50;92.80;;;;;;5003841;28;20554;-82
2023/01/28 11:48:04;;;;;;;23.00;13.73;;;2.60;93.80;;;;;;5002041;28;21066;-80
2023/01/28 11:50:39;;;;;;;15.60;10.43;;;2.70;94.20;;;;;;5000012;28;20469;-81
2023/01/28 11:53:39;;;;;;;17.17;8.97;;;2.60;93.80;;;;;;5003142;28;20446;-81
2023/01/28 11:56:26;;;;;;;21.33;14.50;;;2.60;92.80;;;;;;4993025;28;20530;-80
2023/01/28 11:59:04;;;;;;;14.20;9.27;;;2.70;93.60;;;;;;4982907;28;20514;-82
2023/01/28 12:01:43;;;;;;;8.77;5.30;;;2.70;93.40;;;;;;4996453;28;20817;-82
2023/01/28 12:04:25;;;;;;;19.97;12.00;;;2.60;93.20;;;;;;5004299;28;20485;-82
2023/01/28 12:07:17;;;;;;;27.37;12.80;;;2.50;93.60;;;;;;4987701;28;20462;-80
2023/01/28 12:09:55;;;;;;;28.77;15.90;;;2.60;94.70;;;;;;4983664;28;20451;-81
2023/01/28 12:12:44;;;;;;;33.53;18.63;;;2.50;95.70;;;;;;4988906;28;20455;-81
2023/01/28 12:15:40;;;;;;;32.47;17.30;;;2.50;95.20;;;;;;4990388;28;20969;-81
2023/01/28 12:18:21;;;;;;;20.50;12.07;;;2.70;93.80;;;;;;4977922;28;20475;-80
2023/01/28 12:20:59;;;;;;;31.63;13.67;;;2.70;94.10;;;;;;5003502;28;20466;-82
2023/01/28 12:23:44;;;;;;;20.03;12.30;;;2.60;92.70;;;;;;4989739;28;20501;-82
2023/01/28 12:26:18;;;;;;;31.20;13.10;;;2.60;93.10;;;;;;5008016;28;20485;-81
2023/01/28 12:29:00;;;;;;;11.60;7.17;;;2.50;93.80;;;;;;4985865;28;21047;-82
2023/01/28 12:31:58;;;;;;;14.47;6.30;;;2.40;92.30;;;;;;4987343;28;20475;-80
2023/01/28 12:34:51;;;;;;;15.53;8.80;;;2.40;92.50;;;;;;4988369;28;20454;-82
2023/01/28 12:37:33;;;;;;;17.10;8.10;;;2.40;92.50;;;;;;5005587;28;20478;-81
2023/01/28 12:40:22;;;;;;;20.37;12.30;;;2.20;92.30;;;;;;5008649;28;20454;-81
2023/01/28 12:43:00;;;;;;;20.33;9.80;;;2.40;91.50;;;;;;4995976;28;20462;-83
2023/01/28 12:45:32;;;;;;;25.33;15.83;;;2.50;92.20;;;;;;4990234;28;20207;-82
2023/01/28 12:48:05;;;;;;;26.40;16.77;;;2.60;91.30;;;;;;5006253;28;20460;-82
2023/01/28 12:50:44;;;;;;;25.33;15.47;;;2.70;90.90;;;;;;5008152;28;20199;-82
2023/01/28 12:53:22;;;;;;;23.23;12.03;;;2.90;90.70;;;;;;4989321;28;20499;-83
2023/01/28 12:55:58;;;;;;;23.63;14.67;;;2.90;90.80;;;;;;4990305;28;20459;-82
2023/01/28 12:58:44;;;;;;;21.67;13.70;;;3.20;91.00;;;;;;5007313;28;20511;-82
2023/01/28 13:01:24;;;;;;;27.00;16.97;;;3.30;90.80;;;;;;5006773;28;20442;-82
2023/01/28 13:03:57;;;;;;;29.17;16.60;;;3.40;89.30;;;;;;5004945;28;20497;-83
2023/01/28 13:06:31;;;;;;;30.87;17.57;;;3.60;89.40;;;;;;5001988;28;21110;-82
2023/01/28 13:09:03;;;;;;;23.43;15.50;;;3.60;90.20;;;;;;4995334;28;21081;-82
2023/01/28 13:11:35;;;;;;;35.27;17.10;;;3.70;87.80;;;;;;4986801;28;20459;-83
2023/01/28 13:14:05;;;;;;;25.30;15.93;;;3.90;88.70;;;;;;4988182;28;20458;-82
2023/01/28 13:16:33;;;;;;;26.80;15.30;;;4.30;88.40;;;;;;4994886;28;20529;-82
2023/01/28 13:19:08;;;;;;;27.80;16.00;;;4.20;86.20;;;;;;4987997;28;20775;-82
2023/01/28 13:21:36;;;;;;;24.10;16.40;;;4.40;85.20;;;;;;4972710;28;20455;-82
2023/01/28 13:24:22;;;;;;;24.40;15.30;;;4.80;86.90;;;;;;4981544;28;20859;-83
2023/01/28 13:26:51;;;;;;;27.27;17.83;;;5.80;84.80;;;;;;4993395;28;20559;-83
2023/01/28 13:29:31;;;;;;;23.87;15.80;;;7.00;78.90;;;;;;4991819;28;20464;-83
2023/01/28 13:31:59;;;;;;;22.40;14.73;;;7.10;73.00;;;;;;4990669;28;20815;-83